FMNM/MJN METAR and TAF weather

Enter ICAO airport designator
Station Type Date Time Source
FMNM METAR 2020/09/20 15:00 UTC NOAA

FMNM 201500Z 34008KT 9999 FEW040 27/19 Q1013 NOSIG


Station Type Date Time Source
FMNM Decoded METAR 2020/09/20 15:00 UTC NOAA

Majunga, Madagascar (FMNM) 15-40S 046-21E 18M
Sep 20, 2020 - 11:00 AM EDT / 2020.09.20 1500 UTC
Wind: from the NNW (340 degrees) at 9 MPH (8 KT):0
Visibility: greater than 7 mile(s):0
Sky conditions: mostly clear
Temperature: 80 F (27 C)
Dew Point: 66 F (19 C)
Relative Humidity: 61%
Pressure (altimeter): 29.91 in. Hg (1013 hPa)
ob: FMNM 201500Z 34008KT 9999 FEW040 27/19 Q1013 NOSIG
cycle: 15

Station Type Date Time Source
FMNM TAF 2020/09/20 12:03 UTC NOAA

TAF FMNM 201100Z 2012/2112 34010KT 9999 FEW023
BECMG 2018/2020 14004KT
BECMG 2104/2106 14014KT

Example: see airport list